Norske Flyklubber
Antall som skal vises: 
Nr. Nettlenke Treff
1   Link   Aerobatic Club of Norway
1759
2   Link   Bardufoss Flyklubb
2517
3   Link   Bergen Aero Klubb
2185
4   Link   Bodø Flyklubb
2185
5   Link   Borg Flyklubb
1759
6   Link   Drammen Flyklubb
5310
7   Link   Elverum Flyklubb
1819
8   Link   Follo Flyklubb
1984
9   Link   Gardermoen Flyklubb
1846
10   Link   Grenland Flyklubb
3415
11   Link   Gudbrandsdal Flyklubb
2381
12   Link   Hattfjelldal Flyklubb
2444
13   Link   Hedmark Flyklubb
1818
14   Link   Kilen Sjøflyklubb
2220
15   Link   Klanten Flyklubb
1906
16   Link   Land Flyklubb
2222
17   Link   Lofoten Flyklubb
2388
18   Link   Møre Flyklubb
1777
19   Link   Nedre Romerike Flyklubb
1792
20   Link   Nome Flyklubb
2315
«StartForrige12NesteSiste»
Side 1 av 2
 
METAR
2018/10/18 08:50 ENCN 180850Z 19005KT 160V230 CAVOK 09/06 Q1023
TAF
2018/10/18 09:38 TAF ENCN 180800Z 1809/1818 28008KT CAVOK
LN-KFK
Operativ VFR-natt
VFR dag
07:29 - 18:56
Brannvakt
Inaktiv
Banner
Banner
Banner
Banner
Banner